Time;durP1;ratioP1;P1;durP2;ratioP2;P2;SDS_P1;SDS_P2;PMS_P1;PMS_P2;Temp;Humidity;BMP_temperature;BMP_pressure;BME280_temperature;BME280_humidity;BME280_pressure;Samples;Min_cycle;Max_cycle;Signal;HPM_P1;HPM_P2
2021/11/06 00:01:35;;;;;;;22.40;15.10;;;7.20;99.90;;;;;;5066697;28;20157;-65
2021/11/06 00:04:01;;;;;;;19.27;13.93;;;7.10;99.90;;;;;;5066353;28;20171;-65
2021/11/06 00:06:27;;;;;;;20.83;13.40;;;7.00;99.90;;;;;;5066836;28;20229;-65
2021/11/06 00:08:53;;;;;;;23.73;13.43;;;6.90;99.90;;;;;;5066328;28;20536;-65
2021/11/06 00:11:19;;;;;;;18.73;13.50;;;6.80;99.90;;;;;;5066602;28;20165;-65
2021/11/06 00:13:45;;;;;;;22.17;13.20;;;7.00;99.90;;;;;;5066387;28;20216;-64
2021/11/06 00:16:10;;;;;;;18.40;13.10;;;6.90;99.90;;;;;;5066513;28;20200;-65
2021/11/06 00:18:36;;;;;;;22.67;13.70;;;7.00;99.90;;;;;;5066163;28;20157;-65
2021/11/06 00:21:02;;;;;;;19.77;13.97;;;7.00;99.90;;;;;;5066384;28;20152;-65
2021/11/06 00:23:27;;;;;;;21.67;13.63;;;7.00;99.90;;;;;;5066545;28;20165;-65
2021/11/06 00:25:53;;;;;;;19.40;12.97;;;7.00;99.90;;;;;;5066366;28;20171;-65
2021/11/06 00:28:19;;;;;;;25.83;13.73;;;6.80;99.90;;;;;;5066376;28;20161;-65
2021/11/06 00:30:44;;;;;;;19.20;13.47;;;6.80;99.90;;;;;;5066165;28;20220;-65
2021/11/06 00:33:10;;;;;;;20.60;13.90;;;6.90;99.90;;;;;;5066315;28;20192;-65
2021/11/06 00:35:37;;;;;;;20.60;13.97;;;7.00;99.90;;;;;;5065974;28;20180;-65
2021/11/06 00:38:03;;;;;;;25.77;13.90;;;7.00;99.90;;;;;;5066229;28;20164;-65
2021/11/06 00:40:29;;;;;;;23.33;14.77;;;7.00;99.90;;;;;;5066142;28;20165;-65
2021/11/06 00:42:54;;;;;;;20.70;13.53;;;7.10;99.90;;;;;;5066219;28;20226;-65
2021/11/06 00:45:20;;;;;;;21.70;14.67;;;7.10;99.90;;;;;;5066165;28;20172;-65
2021/11/06 00:47:46;;;;;;;19.83;14.43;;;7.00;99.90;;;;;;5066179;28;20172;-65
2021/11/06 00:50:15;;;;;;;22.10;13.83;;;6.90;99.90;;;;;;5064182;28;20176;-65
2021/11/06 00:52:43;;;;;;;22.30;14.63;;;6.90;99.90;;;;;;5066189;28;20190;-65
2021/11/06 00:55:09;;;;;;;27.77;15.00;;;7.00;99.90;;;;;;5065924;28;20245;-67
2021/11/06 00:57:35;;;;;;;23.10;14.13;;;7.00;99.90;;;;;;5066028;28;20207;-64
2021/11/06 01:00:01;;;;;;;29.57;14.80;;;7.00;99.90;;;;;;5065659;28;20657;-65
2021/11/06 01:02:26;;;;;;;21.37;15.13;;;6.90;99.90;;;;;;5066112;28;20161;-64
2021/11/06 01:04:52;;;;;;;24.80;15.20;;;6.80;99.90;;;;;;5065615;28;20211;-65
2021/11/06 01:07:18;;;;;;;22.90;14.73;;;6.90;99.90;;;;;;5066236;28;20157;-64
2021/11/06 01:09:44;;;;;;;23.43;14.97;;;6.90;99.90;;;;;;5065694;28;20211;-65
2021/11/06 01:12:09;;;;;;;28.57;15.27;;;7.10;99.90;;;;;;5065723;28;20215;-65
2021/11/06 01:14:35;;;;;;;21.73;15.97;;;7.10;99.90;;;;;;5065652;28;20626;-65
2021/11/06 01:17:01;;;;;;;25.30;16.30;;;7.00;99.90;;;;;;5065903;28;20218;-65
2021/11/06 01:19:26;;;;;;;24.33;15.57;;;6.80;99.90;;;;;;5065480;28;20673;-64
2021/11/06 01:21:52;;;;;;;22.83;15.67;;;6.70;99.90;;;;;;5065812;28;20272;-65
2021/11/06 01:24:18;;;;;;;22.13;14.90;;;6.60;99.90;;;;;;5065655;28;20157;-65
2021/11/06 01:26:43;;;;;;;24.33;15.20;;;6.70;99.90;;;;;;5065775;28;20263;-65
2021/11/06 01:29:09;;;;;;;21.67;14.17;;;6.70;99.90;;;;;;5065438;28;20164;-65
2021/11/06 01:31:35;;;;;;;22.10;15.33;;;6.70;99.90;;;;;;5065644;28;20165;-65
2021/11/06 01:34:00;;;;;;;21.43;15.70;;;6.60;99.90;;;;;;5065554;28;20177;-64
2021/11/06 01:36:26;;;;;;;24.07;15.27;;;6.70;99.90;;;;;;5066640;28;20180;-65
2021/11/06 01:38:52;;;;;;;20.50;15.10;;;6.90;99.90;;;;;;5069473;28;20156;-65
2021/11/06 01:41:17;;;;;;;25.47;15.43;;;6.80;99.90;;;;;;5069360;28;20160;-65
2021/11/06 01:43:44;;;;;;;22.90;15.10;;;6.80;99.90;;;;;;5069521;28;20191;-64
2021/11/06 01:46:10;;;;;;;21.87;15.57;;;6.70;99.90;;;;;;5069460;28;20175;-64
2021/11/06 01:48:36;;;;;;;25.37;14.97;;;6.70;99.90;;;;;;5069019;28;20176;-64
2021/11/06 01:51:04;;;;;;;27.80;14.53;;;6.60;99.90;;;;;;5069068;28;20195;-65
2021/11/06 01:53:30;;;;;;;23.73;15.63;;;6.70;99.90;;;;;;5069260;28;20168;-64
2021/11/06 01:55:58;;;;;;;24.13;14.33;;;6.70;99.90;;;;;;5069121;28;20211;-65
2021/11/06 01:58:25;;;;;;;25.10;14.63;;;6.60;99.90;;;;;;5068955;28;20218;-66
2021/11/06 02:00:51;;;;;;;26.10;15.03;;;6.60;99.90;;;;;;5069007;28;20172;-64
2021/11/06 02:03:17;;;;;;;27.73;14.67;;;6.60;99.90;;;;;;5069368;28;20172;-65
2021/11/06 02:05:43;;;;;;;21.17;14.70;;;6.60;99.90;;;;;;5068612;28;20173;-65
2021/11/06 02:08:10;;;;;;;22.70;14.63;;;6.40;99.90;;;;;;5069107;28;20161;-65
2021/11/06 02:10:35;;;;;;;22.70;13.57;;;6.60;99.90;;;;;;5068683;28;20200;-65
2021/11/06 02:13:01;;;;;;;21.33;14.17;;;6.60;99.90;;;;;;5068778;28;20212;-65
2021/11/06 02:15:27;;;;;;;15.27;12.73;;;6.60;99.90;;;;;;5068676;28;20220;-65
2021/11/06 02:17:53;;;;;;;19.33;14.53;;;6.50;99.90;;;;;;5068827;28;20161;-65
2021/11/06 02:20:20;;;;;;;16.47;12.80;;;6.30;99.90;;;;;;5068142;28;20225;-64
2021/11/06 02:22:46;;;;;;;23.10;13.63;;;6.30;99.90;;;;;;5068812;28;20171;-65
2021/11/06 02:25:13;;;;;;;21.57;13.63;;;6.20;99.90;;;;;;5068949;28;20192;-64
2021/11/06 02:27:39;;;;;;;18.67;13.23;;;6.20;99.90;;;;;;5068672;28;20626;-65
2021/11/06 02:30:07;;;;;;;22.30;13.30;;;6.10;99.90;;;;;;5068213;28;20173;-65
2021/11/06 02:32:34;;;;;;;19.80;14.03;;;6.10;99.90;;;;;;5068653;28;20211;-65
2021/11/06 02:35:00;;;;;;;22.37;13.90;;;6.10;99.90;;;;;;5068120;28;20188;-65
2021/11/06 02:37:26;;;;;;;21.73;13.70;;;6.20;99.90;;;;;;5068552;28;20157;-65
2021/11/06 02:39:52;;;;;;;28.17;13.33;;;6.30;99.90;;;;;;5068258;28;20169;-65
2021/11/06 02:42:18;;;;;;;18.43;12.80;;;6.20;99.90;;;;;;5068293;28;20195;-65
2021/11/06 02:44:44;;;;;;;19.67;13.67;;;6.30;99.90;;;;;;5068549;28;20169;-65
2021/11/06 02:47:10;;;;;;;18.10;13.40;;;6.30;99.90;;;;;;5068103;28;20165;-65
2021/11/06 02:49:35;;;;;;;25.07;14.03;;;6.20;99.90;;;;;;5066883;28;20172;-65
2021/11/06 02:52:02;;;;;;;18.17;12.83;;;6.30;99.90;;;;;;5068176;28;20307;-65
2021/11/06 02:54:28;;;;;;;20.10;13.93;;;6.30;99.90;;;;;;5068030;28;20167;-64
2021/11/06 02:56:53;;;;;;;19.70;13.00;;;6.20;99.90;;;;;;5068187;28;20252;-65
2021/11/06 02:59:19;;;;;;;19.63;12.33;;;6.20;99.90;;;;;;5067975;28;20163;-65
2021/11/06 03:01:45;;;;;;;16.87;12.03;;;6.20;99.90;;;;;;5068055;28;20161;-65
2021/11/06 03:04:12;;;;;;;16.10;11.07;;;6.10;99.90;;;;;;5066347;28;20180;-65
2021/11/06 03:06:39;;;;;;;19.67;12.30;;;6.10;99.90;;;;;;5067986;28;20169;-65
2021/11/06 03:09:05;;;;;;;15.73;11.27;;;6.00;99.90;;;;;;5067789;28;20227;-65
2021/11/06 03:11:33;;;;;;;21.13;12.17;;;6.10;99.90;;;;;;5067469;28;20187;-65
2021/11/06 03:14:01;;;;;;;20.20;12.27;;;6.10;99.90;;;;;;5067801;28;20212;-65
2021/11/06 03:16:26;;;;;;;21.50;12.23;;;6.20;99.90;;;;;;5067629;28;20196;-65
2021/11/06 03:18:52;;;;;;;23.43;12.13;;;6.30;99.90;;;;;;5067280;28;20175;-65
2021/11/06 03:21:19;;;;;;;21.97;11.80;;;6.40;99.90;;;;;;5067524;28;20176;-64
2021/11/06 03:23:45;;;;;;;20.27;12.50;;;6.40;99.90;;;;;;5067721;28;20207;-65
2021/11/06 03:26:11;;;;;;;20.27;11.53;;;6.30;99.90;;;;;;5067485;28;20173;-65
2021/11/06 03:28:36;;;;;;;17.30;12.40;;;6.30;99.90;;;;;;5067493;28;20172;-65
2021/11/06 03:31:02;;;;;;;16.83;12.07;;;6.30;99.90;;;;;;5067285;28;20188;-65
2021/11/06 03:33:28;;;;;;;17.80;11.93;;;6.20;99.90;;;;;;5067369;28;20169;-65
2021/11/06 03:35:54;;;;;;;16.87;11.93;;;6.20;99.90;;;;;;5067051;28;20744;-65
2021/11/06 03:38:19;;;;;;;17.70;11.57;;;6.10;99.90;;;;;;5067194;28;20184;-65
2021/11/06 03:40:45;;;;;;;16.43;11.40;;;6.10;99.90;;;;;;5067023;28;20634;-65
2021/11/06 03:43:11;;;;;;;17.13;11.83;;;6.20;99.90;;;;;;5067179;28;20173;-65
2021/11/06 03:45:37;;;;;;;14.40;11.40;;;6.20;99.90;;;;;;5067179;28;20221;-65
2021/11/06 03:48:03;;;;;;;16.73;11.87;;;6.10;99.90;;;;;;5067080;28;20237;-64
2021/11/06 03:50:29;;;;;;;16.07;11.80;;;6.20;99.90;;;;;;5066413;28;20205;-65
2021/11/06 03:52:54;;;;;;;22.30;11.90;;;6.20;99.90;;;;;;5067121;28;20165;-64
2021/11/06 03:55:20;;;;;;;14.93;11.03;;;6.10;99.90;;;;;;5066833;28;20188;-64
2021/11/06 03:57:46;;;;;;;17.67;11.03;;;6.20;99.90;;;;;;5065591;28;20175;-64
2021/11/06 04:00:14;;;;;;;11.70;9.83;;;6.20;99.90;;;;;;5066136;28;20172;-64
2021/11/06 04:02:42;;;;;;;14.73;10.50;;;6.20;99.90;;;;;;5066853;28;20157;-65
2021/11/06 04:05:07;;;;;;;15.47;10.37;;;6.20;99.90;;;;;;5066493;28;20180;-64
2021/11/06 04:07:33;;;;;;;14.97;9.60;;;6.20;99.90;;;;;;5066718;28;20180;-64
2021/11/06 04:09:58;;;;;;;16.03;10.23;;;6.20;99.90;;;;;;5066315;28;20176;-65
2021/11/06 04:12:24;;;;;;;17.43;10.63;;;6.30;99.90;;;;;;5066471;28;20219;-65
2021/11/06 04:14:50;;;;;;;14.57;9.93;;;6.30;99.90;;;;;;5066561;28;20197;-64
2021/11/06 04:17:15;;;;;;;13.13;9.80;;;6.30;99.90;;;;;;5066661;28;20164;-64
2021/11/06 04:19:41;;;;;;;11.03;8.90;;;6.20;99.90;;;;;;5066151;28;20173;-64
2021/11/06 04:22:07;;;;;;;10.90;8.97;;;6.20;99.90;;;;;;5066562;28;20168;-64
2021/11/06 04:24:32;;;;;;;13.63;9.47;;;6.20;99.90;;;;;;5066440;28;20161;-64
2021/11/06 04:26:59;;;;;;;18.20;9.30;;;6.20;99.90;;;;;;5066513;28;20210;-65
2021/11/06 04:29:24;;;;;;;10.47;9.43;;;6.20;99.90;;;;;;5066206;28;20164;-65
2021/11/06 04:31:50;;;;;;;11.83;9.43;;;6.20;99.90;;;;;;5066429;28;20469;-65
2021/11/06 04:34:16;;;;;;;14.17;9.20;;;6.20;99.90;;;;;;5066183;28;20207;-65
2021/11/06 04:36:42;;;;;;;16.10;9.37;;;6.30;99.90;;;;;;5066343;28;20256;-64
2021/11/06 04:39:07;;;;;;;13.77;9.03;;;6.50;99.90;;;;;;5066268;28;20165;-65
2021/11/06 04:41:33;;;;;;;12.43;9.37;;;6.30;99.90;;;;;;5066027;28;20192;-65
2021/11/06 04:43:59;;;;;;;11.17;9.27;;;6.40;99.90;;;;;;5066462;28;20187;-65
2021/11/06 04:46:25;;;;;;;14.17;9.50;;;6.40;99.90;;;;;;5066101;28;20618;-65
2021/11/06 04:48:51;;;;;;;11.87;9.37;;;6.40;99.90;;;;;;5065757;28;20196;-64
2021/11/06 04:51:16;;;;;;;13.60;9.33;;;6.40;99.90;;;;;;5065725;28;20546;-65
2021/11/06 04:53:42;;;;;;;11.47;8.87;;;6.40;99.90;;;;;;5066262;28;20232;-64
2021/11/06 04:56:08;;;;;;;12.13;9.13;;;6.60;99.90;;;;;;5065988;28;20196;-64
2021/11/06 04:58:34;;;;;;;9.93;8.00;;;6.40;99.90;;;;;;5066201;28;20161;-65
2021/11/06 05:00:59;;;;;;;11.47;8.63;;;6.40;99.90;;;;;;5065420;28;20172;-65
2021/11/06 05:03:25;;;;;;;11.83;9.13;;;6.50;99.90;;;;;;5065876;28;20228;-64
2021/11/06 05:05:51;;;;;;;12.70;9.07;;;6.50;99.90;;;;;;5065665;28;20176;-65
2021/11/06 05:08:16;;;;;;;15.87;8.80;;;6.40;99.90;;;;;;5065949;28;20179;-65
2021/11/06 05:10:42;;;;;;;11.63;8.67;;;6.40;99.90;;;;;;5065568;28;20165;-65
2021/11/06 05:13:08;;;;;;;12.40;8.70;;;6.40;99.90;;;;;;5069520;28;20248;-65
2021/11/06 05:15:34;;;;;;;9.40;8.00;;;6.50;99.90;;;;;;5070003;28;20192;-65
2021/11/06 05:18:00;;;;;;;8.60;7.67;;;6.50;99.90;;;;;;5069915;28;20230;-65
2021/11/06 05:20:26;;;;;;;9.63;8.13;;;6.40;99.90;;;;;;5069346;28;20195;-65
2021/11/06 05:22:51;;;;;;;11.90;8.43;;;6.30;99.90;;;;;;5069770;28;20188;-65
2021/11/06 05:25:17;;;;;;;11.03;8.37;;;6.50;99.90;;;;;;5069583;28;20176;-65
2021/11/06 05:27:43;;;;;;;10.87;8.40;;;6.50;99.90;;;;;;5069858;28;20164;-65
2021/11/06 05:30:11;;;;;;;14.13;9.70;;;6.50;99.90;;;;;;5069359;28;20177;-64
2021/11/06 05:32:37;;;;;;;10.37;8.70;;;6.50;99.90;;;;;;5069643;28;20191;-65
2021/11/06 05:35:05;;;;;;;16.53;8.57;;;6.50;99.90;;;;;;5067745;28;20199;-65
2021/11/06 05:37:31;;;;;;;10.47;8.40;;;6.50;99.90;;;;;;5069532;28;20171;-64
2021/11/06 05:39:56;;;;;;;14.13;8.60;;;6.50;99.90;;;;;;5069271;28;20173;-64
2021/11/06 05:42:22;;;;;;;11.07;8.60;;;6.40;99.90;;;;;;5069571;28;20196;-64
2021/11/06 05:44:48;;;;;;;12.23;7.90;;;6.50;99.90;;;;;;5069511;28;20192;-64
2021/11/06 05:47:13;;;;;;;9.73;8.03;;;6.30;99.90;;;;;;5069494;28;20226;-65
2021/11/06 05:49:39;;;;;;;11.33;8.50;;;6.40;99.90;;;;;;5067600;28;20240;-65
2021/11/06 05:52:05;;;;;;;11.33;8.33;;;6.50;99.90;;;;;;5069269;28;20653;-64
2021/11/06 05:54:31;;;;;;;12.83;7.87;;;6.60;99.90;;;;;;5069362;28;20203;-65
2021/11/06 05:56:56;;;;;;;10.97;8.03;;;6.60;99.90;;;;;;5069201;28;20526;-65
2021/11/06 05:59:22;;;;;;;9.57;7.90;;;6.60;99.90;;;;;;5069136;28;20153;-64
2021/11/06 06:01:48;;;;;;;9.50;7.40;;;6.60;99.90;;;;;;5067476;28;20615;-65
2021/11/06 06:04:14;;;;;;;9.50;8.13;;;6.50;99.90;;;;;;5068737;28;20233;-64
2021/11/06 06:06:40;;;;;;;9.23;7.53;;;6.50;99.90;;;;;;5069034;28;20224;-65
2021/11/06 06:09:06;;;;;;;10.87;7.63;;;6.40;99.90;;;;;;5068892;28;20226;-65
2021/11/06 06:11:32;;;;;;;10.77;7.87;;;6.40;99.90;;;;;;5068728;28;20177;-65
2021/11/06 06:13:58;;;;;;;11.70;8.10;;;6.60;99.90;;;;;;5068783;28;20223;-65
2021/11/06 06:16:24;;;;;;;13.80;7.57;;;6.60;99.90;;;;;;5068792;28;20243;-65
2021/11/06 06:18:50;;;;;;;12.03;7.97;;;6.70;99.90;;;;;;5068456;28;20153;-65
2021/11/06 06:21:16;;;;;;;10.80;7.83;;;6.70;99.90;;;;;;5068527;28;20157;-65
2021/11/06 06:23:42;;;;;;;12.73;8.50;;;6.60;99.90;;;;;;5068471;28;20168;-65
2021/11/06 06:26:09;;;;;;;15.37;8.50;;;6.70;99.90;;;;;;5067228;28;20687;-65
2021/11/06 06:28:35;;;;;;;12.27;6.97;;;6.80;99.90;;;;;;5068735;28;20163;-64
2021/11/06 06:31:01;;;;;;;9.50;7.27;;;6.60;99.90;;;;;;5068279;28;20196;-64
2021/11/06 06:33:26;;;;;;;11.67;8.03;;;6.60;99.90;;;;;;5067272;28;20610;-65
2021/11/06 06:35:52;;;;;;;10.60;7.67;;;6.70;99.90;;;;;;5068172;28;20211;-64
2021/11/06 06:38:17;;;;;;;17.27;7.73;;;6.70;99.90;;;;;;5068717;28;20515;-64
2021/11/06 06:40:43;;;;;;;11.77;7.97;;;6.90;99.90;;;;;;5068246;28;20168;-64
2021/11/06 06:43:09;;;;;;;8.50;7.57;;;6.80;99.90;;;;;;5068587;28;20160;-64
2021/11/06 06:45:35;;;;;;;13.03;7.73;;;6.80;99.90;;;;;;5068350;28;20169;-64
2021/11/06 06:48:00;;;;;;;19.03;8.40;;;6.90;99.90;;;;;;5067186;28;20165;-65
2021/11/06 06:50:26;;;;;;;12.40;8.23;;;6.90;99.90;;;;;;5067658;28;20179;-64
2021/11/06 06:52:52;;;;;;;8.33;7.47;;;7.10;99.90;;;;;;5068414;28;20165;-64
2021/11/06 06:55:18;;;;;;;10.13;7.50;;;7.10;99.90;;;;;;5068089;28;20248;-64
2021/11/06 06:57:43;;;;;;;9.10;7.53;;;7.10;99.90;;;;;;5068363;28;20185;-64
2021/11/06 07:00:11;;;;;;;9.97;7.60;;;7.10;99.90;;;;;;5067984;28;20172;-64
2021/11/06 07:02:37;;;;;;;9.97;7.97;;;7.00;99.90;;;;;;5066716;28;20161;-65
2021/11/06 07:05:03;;;;;;;8.87;7.80;;;7.00;99.90;;;;;;5067774;28;20215;-64
2021/11/06 07:07:29;;;;;;;13.77;8.27;;;7.10;99.90;;;;;;5066774;28;20164;-66
2021/11/06 07:09:55;;;;;;;9.50;7.30;;;7.10;99.90;;;;;;5067943;28;20187;-64
2021/11/06 07:12:23;;;;;;;9.10;7.50;;;7.00;99.90;;;;;;5067638;28;20299;-64
2021/11/06 07:14:48;;;;;;;10.30;7.57;;;7.10;99.90;;;;;;5067935;28;20162;-65
2021/11/06 07:17:14;;;;;;;13.37;7.90;;;7.10;99.90;;;;;;5068131;28;20160;-64
2021/11/06 07:19:40;;;;;;;9.40;7.73;;;7.00;99.90;;;;;;5067198;28;20171;-64
2021/11/06 07:22:06;;;;;;;12.40;7.83;;;7.00;99.90;;;;;;5067778;28;20176;-64
2021/11/06 07:24:32;;;;;;;8.53;7.63;;;7.00;99.90;;;;;;5067941;28;20168;-64
2021/11/06 07:26:57;;;;;;;9.37;8.10;;;7.00;99.90;;;;;;5066732;28;20414;-65
2021/11/06 07:29:23;;;;;;;8.77;7.53;;;7.00;99.90;;;;;;5067435;28;20395;-64
2021/11/06 07:31:49;;;;;;;8.97;7.63;;;7.00;99.90;;;;;;5067238;28;20173;-65
2021/11/06 07:34:15;;;;;;;8.90;7.67;;;7.10;99.90;;;;;;5066679;28;20169;-65
2021/11/06 07:36:40;;;;;;;8.87;7.70;;;7.20;99.90;;;;;;5067346;28;20581;-64
2021/11/06 07:39:06;;;;;;;9.17;7.97;;;7.10;99.90;;;;;;5067496;28;20161;-64
2021/11/06 07:41:32;;;;;;;11.17;7.97;;;7.20;99.90;;;;;;5067139;28;20222;-64
2021/11/06 07:43:57;;;;;;;11.20;7.97;;;7.30;99.90;;;;;;5067447;28;20161;-64
2021/11/06 07:46:23;;;;;;;11.57;7.73;;;7.40;99.90;;;;;;5066964;28;20165;-65
2021/11/06 07:48:49;;;;;;;10.33;7.93;;;7.50;99.90;;;;;;5065294;28;20188;-64
2021/11/06 07:51:16;;;;;;;13.77;7.07;;;7.40;99.90;;;;;;5066823;28;20183;-65
2021/11/06 07:53:42;;;;;;;10.23;8.52;;;7.40;99.90;;;;;;5066764;28;20430;-65
2021/11/06 07:56:07;;;;;;;9.80;7.47;;;7.50;99.90;;;;;;5067242;28;20196;-64
2021/11/06 07:58:33;;;;;;;8.80;7.03;;;7.60;99.90;;;;;;5066975;28;20156;-64
2021/11/06 08:01:00;;;;;;;9.10;7.20;;;7.60;99.90;;;;;;5066517;28;20203;-64
2021/11/06 08:03:26;;;;;;;7.88;7.00;;;7.70;99.90;;;;;;5066564;28;20407;-64
2021/11/06 08:05:52;;;;;;;9.97;7.23;;;7.80;99.90;;;;;;5066490;28;20207;-65
2021/11/06 08:08:18;;;;;;;8.50;7.57;;;7.90;99.90;;;;;;5066991;28;20164;-65
2021/11/06 08:10:43;;;;;;;10.80;7.37;;;7.70;99.90;;;;;;5066339;28;20169;-64
2021/11/06 08:13:11;;;;;;;7.97;6.97;;;7.80;99.90;;;;;;5066319;28;20216;-64
2021/11/06 08:15:37;;;;;;;11.50;7.33;;;7.80;99.90;;;;;;5066473;28;20204;-64
2021/11/06 08:18:03;;;;;;;9.07;6.73;;;7.90;99.90;;;;;;5066640;28;20165;-64
2021/11/06 08:20:29;;;;;;;9.47;6.97;;;7.90;99.90;;;;;;5065882;28;20169;-64
2021/11/06 08:22:54;;;;;;;9.60;6.83;;;7.90;99.90;;;;;;5066607;28;20160;-64
2021/11/06 08:25:22;;;;;;;9.57;7.03;;;8.00;99.90;;;;;;5066565;28;20181;-65
2021/11/06 08:27:49;;;;;;;8.23;6.90;;;8.00;99.90;;;;;;5066629;28;20255;-65
2021/11/06 08:30:17;;;;;;;9.53;7.40;;;8.10;99.90;;;;;;5066067;28;20215;-65
2021/11/06 08:32:44;;;;;;;10.90;6.37;;;8.20;99.90;;;;;;5065041;28;20175;-65
2021/11/06 08:35:10;;;;;;;8.73;6.47;;;8.20;99.90;;;;;;5065946;28;20189;-65
2021/11/06 08:37:37;;;;;;;11.70;6.40;;;8.40;99.90;;;;;;5066202;28;20705;-65
2021/11/06 08:40:05;;;;;;;7.47;6.77;;;8.40;99.90;;;;;;5066028;28;20232;-65
2021/11/06 08:42:31;;;;;;;9.83;6.73;;;8.30;99.90;;;;;;5066125;28;20165;-65
2021/11/06 08:44:57;;;;;;;10.67;6.90;;;8.30;99.90;;;;;;5065905;28;20247;-65
2021/11/06 08:47:23;;;;;;;9.93;6.67;;;8.30;99.90;;;;;;5065322;28;20515;-65
2021/11/06 08:49:48;;;;;;;19.83;7.60;;;8.20;99.90;;;;;;5065866;28;20191;-65
2021/11/06 08:52:18;;;;;;;7.67;6.87;;;8.30;99.90;;;;;;5066372;28;20165;-65
2021/11/06 08:54:48;;;;;;;9.07;7.00;;;8.30;99.90;;;;;;5065815;28;20495;-66
2021/11/06 08:57:14;;;;;;;8.33;6.37;;;8.40;99.90;;;;;;5065990;28;20294;-66
2021/11/06 08:59:40;;;;;;;10.00;7.17;;;8.40;99.90;;;;;;5065909;28;20169;-65
2021/11/06 09:02:06;;;;;;;10.77;7.20;;;8.20;99.90;;;;;;5065825;28;20169;-65
2021/11/06 09:04:31;;;;;;;10.23;7.30;;;8.30;99.90;;;;;;5065767;28;20207;-65
2021/11/06 09:06:58;;;;;;;13.23;7.57;;;8.30;99.90;;;;;;5066080;28;20165;-65
2021/11/06 09:09:24;;;;;;;12.83;7.43;;;8.10;99.90;;;;;;5065971;28;20161;-65
2021/11/06 09:11:52;;;;;;;10.20;7.47;;;8.00;99.90;;;;;;5065460;28;20654;-65
2021/11/06 09:14:19;;;;;;;8.53;7.67;;;8.20;99.90;;;;;;5066078;28;20152;-65
2021/11/06 09:16:45;;;;;;;7.73;6.93;;;8.30;99.90;;;;;;5065871;28;20200;-66
2021/11/06 09:19:11;;;;;;;10.70;7.40;;;8.40;99.90;;;;;;5065789;28;20240;-65
2021/11/06 09:21:38;;;;;;;8.20;7.27;;;8.40;99.90;;;;;;5065788;28;20169;-65
2021/11/06 09:24:04;;;;;;;10.03;7.03;;;8.60;99.90;;;;;;5066023;28;20261;-65
2021/11/06 09:26:38;;;;;;;8.93;7.50;;;8.60;99.90;;;;;;5065869;28;20252;-65
2021/11/06 09:29:05;;;;;;;14.53;8.10;;;8.70;99.90;;;;;;5066039;28;20183;-65
2021/11/06 09:31:31;;;;;;;11.77;7.37;;;8.90;99.90;;;;;;5065645;28;20227;-65
2021/11/06 09:33:57;;;;;;;11.50;7.00;;;8.90;99.90;;;;;;5065625;28;20165;-65
2021/11/06 09:36:24;;;;;;;10.10;7.13;;;8.90;99.90;;;;;;5065824;28;20181;-65
2021/11/06 09:38:50;;;;;;;10.83;7.53;;;9.00;99.90;;;;;;5065836;28;20185;-65
2021/11/06 09:41:17;;;;;;;9.03;6.73;;;9.30;99.90;;;;;;5065464;28;20175;-66
2021/11/06 09:43:43;;;;;;;10.03;6.93;;;9.20;99.90;;;;;;5065774;28;20157;-66
2021/11/06 09:46:09;;;;;;;7.60;6.83;;;9.20;99.90;;;;;;5065660;28;20196;-65
2021/11/06 09:48:37;;;;;;;10.30;7.33;;;9.30;99.90;;;;;;5065758;28;20164;-65
2021/11/06 09:51:03;;;;;;;7.40;6.60;;;9.40;99.90;;;;;;5065224;28;20194;-66
2021/11/06 09:53:31;;;;;;;7.97;6.87;;;9.30;99.90;;;;;;5064499;28;20165;-65
2021/11/06 09:55:57;;;;;;;12.27;7.40;;;9.50;99.90;;;;;;5065529;28;20208;-65
2021/11/06 09:58:23;;;;;;;11.37;7.53;;;9.50;99.90;;;;;;5067952;28;20164;-65
2021/11/06 10:00:49;;;;;;;12.93;7.33;;;9.50;99.90;;;;;;5067817;28;20204;-65
2021/11/06 10:03:18;;;;;;;13.47;6.97;;;9.50;99.90;;;;;;5069226;28;20160;-66
2021/11/06 10:05:51;;;;;;;8.37;7.57;;;9.60;99.90;;;;;;5068774;28;20187;-65
2021/11/06 10:08:35;;;;;;;7.67;6.87;;;9.70;99.90;;;;;;5069297;28;20161;-65
2021/11/06 10:11:05;;;;;;;11.63;7.00;;;9.90;99.90;;;;;;5068935;28;20173;-65
2021/11/06 10:13:32;;;;;;;8.70;7.50;;;9.90;99.90;;;;;;5068826;28;20218;-65
2021/11/06 10:15:59;;;;;;;7.67;6.87;;;9.70;99.90;;;;;;5068732;28;20192;-66
2021/11/06 10:18:28;;;;;;;14.17;7.00;;;9.80;99.90;;;;;;5068962;28;20193;-65
2021/11/06 10:21:03;;;;;;;6.90;6.13;;;9.80;99.90;;;;;;5068242;28;20169;-65
2021/11/06 10:23:47;;;;;;;12.13;7.90;;;9.90;99.90;;;;;;5068880;28;20153;-66
2021/11/06 10:26:20;;;;;;;10.73;7.00;;;10.00;99.90;;;;;;5068860;28;20165;-65
2021/11/06 10:29:07;;;;;;;11.07;6.63;;;10.30;99.90;;;;;;5068756;28;20168;-65
2021/11/06 10:31:58;;;;;;;15.07;7.87;;;10.40;99.90;;;;;;5068386;28;20220;-65
2021/11/06 10:34:26;;;;;;;9.07;7.10;;;10.10;99.90;;;;;;5068155;28;20176;-65
2021/11/06 10:36:59;;;;;;;11.17;6.57;;;10.10;99.90;;;;;;5068702;28;20251;-65
2021/11/06 10:39:25;;;;;;;8.40;6.47;;;10.10;99.90;;;;;;5068407;28;20557;-66
2021/11/06 10:41:50;;;;;;;9.23;6.20;;;10.00;99.90;;;;;;5068387;28;20173;-65
2021/11/06 10:44:19;;;;;;;10.17;6.77;;;10.10;99.90;;;;;;5068504;28;20172;-65
2021/11/06 10:46:52;;;;;;;8.93;7.00;;;10.00;99.90;;;;;;5067096;28;20178;-65
2021/11/06 10:49:39;;;;;;;6.90;6.23;;;10.20;99.90;;;;;;5068093;28;20175;-66
2021/11/06 10:52:16;;;;;;;8.17;6.73;;;10.20;99.90;;;;;;5066831;28;20176;-66
2021/11/06 10:55:02;;;;;;;8.73;6.67;;;10.00;99.90;;;;;;5068475;28;20230;-66
2021/11/06 10:57:28;;;;;;;14.20;6.80;;;10.00;99.90;;;;;;5068220;28;20156;-66
2021/11/06 11:00:13;;;;;;;8.67;7.80;;;10.00;99.90;;;;;;5068238;28;20157;-66
2021/11/06 11:02:40;;;;;;;9.20;7.47;;;10.10;99.90;;;;;;5066952;28;20187;-66
2021/11/06 11:05:32;;;;;;;9.20;7.90;;;9.90;99.90;;;;;;5067719;28;20173;-66
2021/11/06 11:08:13;;;;;;;11.30;9.00;;;9.90;99.90;;;;;;5066881;28;20423;-66
2021/11/06 11:10:40;;;;;;;14.27;9.37;;;9.90;99.90;;;;;;5065548;28;20173;-66
2021/11/06 11:13:20;;;;;;;13.30;9.97;;;10.00;99.90;;;;;;5067656;28;20231;-66
2021/11/06 11:15:52;;;;;;;15.47;9.47;;;9.90;99.90;;;;;;5067746;28;20188;-66
2021/11/06 11:18:45;;;;;;;15.68;11.52;;;9.80;99.90;;;;;;5066959;28;20408;-66
2021/11/06 11:21:20;;;;;;;14.33;10.47;;;9.60;99.90;;;;;;5065916;28;20656;-66
2021/11/06 11:23:47;;;;;;;11.00;9.90;;;9.40;99.90;;;;;;5067800;28;20258;-66
2021/11/06 11:26:14;;;;;;;10.93;9.07;;;9.30;99.90;;;;;;5067433;28;20173;-66
2021/11/06 11:28:40;;;;;;;12.73;9.30;;;9.20;99.90;;;;;;5067649;28;20215;-66
2021/11/06 11:31:07;;;;;;;13.27;11.43;;;9.30;99.90;;;;;;5066318;28;20411;-68
2021/11/06 11:33:41;;;;;;;13.30;10.63;;;9.40;99.90;;;;;;5067448;28;20165;-66
2021/11/06 11:36:08;;;;;;;12.00;10.60;;;9.40;99.90;;;;;;5066760;28;20210;-66
2021/11/06 11:38:36;;;;;;;14.27;9.23;;;9.50;99.90;;;;;;5067239;28;20168;-66
2021/11/06 11:41:48;;;;;;;12.17;10.07;;;9.60;99.90;;;;;;5065642;28;20180;-66
2021/11/06 11:44:44;;;;;;;15.43;10.60;;;9.70;99.90;;;;;;5067160;28;20208;-66
2021/11/06 11:47:37;;;;;;;15.43;9.30;;;9.70;99.90;;;;;;5056794;28;20172;-66
2021/11/06 11:50:06;;;;;;;11.07;8.70;;;9.80;99.90;;;;;;5066422;28;20173;-66
2021/11/06 11:52:37;;;;;;;17.83;9.10;;;9.90;99.90;;;;;;5065691;28;20528;-66
2021/11/06 11:55:03;;;;;;;10.80;8.20;;;9.80;99.90;;;;;;5066787;28;20200;-66
2021/11/06 11:57:29;;;;;;;8.90;7.73;;;9.70;99.90;;;;;;5066842;28;20168;-66
2021/11/06 11:59:56;;;;;;;12.07;8.03;;;9.70;99.90;;;;;;5066506;28;20216;-66
2021/11/06 12:02:27;;;;;;;11.00;8.00;;;9.80;99.90;;;;;;5066507;28;20169;-66
2021/11/06 12:05:40;;;;;;;17.33;8.00;;;9.70;99.90;;;;;;5066227;28;20225;-66
2021/11/06 12:08:11;;;;;;;8.10;7.30;;;9.90;99.90;;;;;;5044721;28;20274;-66
2021/11/06 12:10:37;;;;;;;8.40;7.60;;;9.90;99.90;;;;;;5044543;28;20189;-66
2021/11/06 12:13:04;;;;;;;10.17;7.37;;;10.00;99.90;;;;;;5043435;28;20661;-66
2021/11/06 12:16:12;;;;;;;10.97;8.00;;;10.20;99.90;;;;;;5044243;28;20197;-66
2021/11/06 12:18:50;;;;;;;10.37;7.23;;;10.30;99.90;;;;;;4966009;29;20187;-66
2021/11/06 12:21:16;;;;;;;9.17;7.70;;;10.40;99.90;;;;;;4964862;28;20262;-66
2021/11/06 12:23:44;;;;;;;13.73;7.50;;;10.30;99.90;;;;;;4965939;29;20183;-66
2021/11/06 12:26:32;;;;;;;11.53;7.20;;;10.30;99.90;;;;;;4966208;29;20180;-66
2021/11/06 12:29:06;;;;;;;9.37;8.03;;;10.30;99.90;;;;;;4966249;29;20157;-66
2021/11/06 12:31:37;;;;;;;8.17;7.33;;;10.30;99.90;;;;;;4965865;29;20285;-66
2021/11/06 12:34:04;;;;;;;10.20;7.83;;;10.10;99.90;;;;;;4966167;29;20282;-66
2021/11/06 12:36:31;;;;;;;9.47;7.90;;;10.10;99.90;;;;;;4965565;29;20204;-66
2021/11/06 12:38:58;;;;;;;9.70;8.57;;;10.10;99.90;;;;;;4989681;28;20171;-66
2021/11/06 12:41:38;;;;;;;12.03;7.97;;;10.40;99.90;;;;;;5004446;28;20174;-66
2021/11/06 12:44:07;;;;;;;12.77;9.43;;;10.50;99.90;;;;;;5004968;28;20143;-66
2021/11/06 12:46:36;;;;;;;13.20;9.47;;;10.50;99.90;;;;;;5004594;28;20166;-66
2021/11/06 12:49:08;;;;;;;15.43;10.13;;;10.40;99.90;;;;;;5028607;28;20188;-66